createdAt,value
2023-11-06T00:00:57.794Z,20.10
2023-11-06T00:03:25.983Z,20.98
2023-11-06T00:05:53.451Z,22.00
2023-11-06T00:08:20.861Z,18.88
2023-11-06T00:10:48.194Z,22.25
2023-11-06T00:13:15.786Z,21.20
2023-11-06T00:15:43.116Z,18.73
2023-11-06T00:18:11.052Z,17.98
2023-11-06T00:20:38.420Z,22.50
2023-11-06T00:23:05.768Z,17.67
2023-11-06T00:25:34.139Z,19.05
2023-11-06T00:28:01.908Z,17.20
2023-11-06T00:30:29.490Z,16.27
2023-11-06T00:32:58.606Z,16.52
2023-11-06T00:35:26.800Z,21.45
2023-11-06T00:37:54.170Z,17.33
2023-11-06T00:40:21.498Z,16.48
2023-11-06T00:42:49.144Z,19.42
2023-11-06T00:45:16.543Z,14.18
2023-11-06T00:47:43.998Z,17.58
2023-11-06T00:50:12.366Z,14.57
2023-11-06T00:52:40.131Z,13.95
2023-11-06T00:55:08.147Z,18.20
2023-11-06T00:57:35.480Z,13.20
2023-11-06T01:00:05.907Z,19.63
2023-11-06T01:02:33.986Z,16.05
2023-11-06T01:05:01.779Z,15.65
2023-11-06T01:07:30.233Z,12.48
2023-11-06T01:09:58.008Z,13.00
2023-11-06T01:12:25.566Z,14.98
2023-11-06T01:17:20.785Z,13.93
2023-11-06T01:22:15.794Z,12.50
2023-11-06T01:24:43.110Z,14.10
2023-11-06T01:27:10.812Z,13.90
2023-11-06T01:32:06.611Z,12.57
2023-11-06T01:34:34.096Z,14.38
2023-11-06T01:37:01.469Z,13.82
2023-11-06T01:39:28.766Z,16.58
2023-11-06T01:41:56.851Z,15.43
2023-11-06T01:44:24.877Z,12.70
2023-11-06T01:46:52.731Z,14.98
2023-11-06T01:49:20.377Z,12.05
2023-11-06T01:51:49.025Z,14.32
2023-11-06T01:54:18.305Z,14.07
2023-11-06T01:56:45.794Z,14.02
2023-11-06T01:59:13.279Z,15.48
2023-11-06T02:01:47.465Z,12.02
2023-11-06T02:04:16.108Z,15.07
2023-11-06T02:06:45.041Z,12.02
2023-11-06T02:09:12.882Z,13.38
2023-11-06T02:11:40.486Z,11.65
2023-11-06T02:14:08.308Z,12.85
2023-11-06T02:16:35.939Z,12.32
2023-11-06T02:19:04.039Z,12.07
2023-11-06T02:21:31.550Z,12.05
2023-11-06T02:23:59.061Z,12.88
2023-11-06T02:26:26.489Z,13.57
2023-11-06T02:28:55.405Z,13.80
2023-11-06T02:31:23.015Z,13.40
2023-11-06T02:33:50.460Z,14.25
2023-11-06T02:36:18.934Z,11.20
2023-11-06T02:38:46.643Z,12.73
2023-11-06T02:41:14.264Z,14.73
2023-11-06T02:43:41.976Z,12.07
2023-11-06T02:46:09.309Z,12.48
2023-11-06T02:48:36.818Z,12.73
2023-11-06T02:51:04.334Z,12.43
2023-11-06T02:53:31.792Z,12.30
2023-11-06T02:58:27.345Z,17.85
2023-11-06T03:00:55.890Z,11.85
2023-11-06T03:03:23.652Z,11.52
2023-11-06T03:05:51.171Z,14.40
2023-11-06T03:08:19.220Z,10.65
2023-11-06T03:10:47.194Z,11.88
2023-11-06T03:13:14.532Z,10.38
2023-11-06T03:15:41.866Z,10.30
2023-11-06T03:18:09.648Z,11.73
2023-11-06T03:20:37.449Z,12.02
2023-11-06T03:23:04.898Z,10.27
2023-11-06T03:25:32.470Z,11.57
2023-11-06T03:27:59.781Z,11.23
2023-11-06T03:30:27.343Z,13.55
2023-11-06T03:32:55.665Z,10.70
2023-11-06T03:37:50.306Z,11.82
2023-11-06T03:40:18.090Z,10.68
2023-11-06T03:42:46.305Z,12.13
2023-11-06T03:45:13.897Z,10.75
2023-11-06T03:47:41.335Z,18.83
2023-11-06T03:50:09.863Z,12.70
2023-11-06T03:52:37.230Z,12.88
2023-11-06T03:55:05.416Z,14.32
2023-11-06T03:57:32.939Z,10.93
2023-11-06T04:00:00.313Z,12.18
2023-11-06T04:02:27.846Z,14.57
2023-11-06T04:04:55.276Z,12.48
2023-11-06T04:07:23.016Z,12.98
2023-11-06T04:09:50.554Z,12.98
2023-11-06T04:12:17.963Z,11.60
2023-11-06T04:14:45.720Z,15.77
2023-11-06T04:17:13.419Z,12.90
2023-11-06T04:22:09.181Z,11.38
2023-11-06T04:24:36.721Z,13.27
2023-11-06T04:29:31.874Z,14.77
2023-11-06T04:34:26.733Z,13.13
2023-11-06T04:36:54.102Z,73.10
2023-11-06T04:39:21.499Z,205.85
2023-11-06T04:41:49.391Z,224.13
2023-11-06T04:44:17.690Z,228.25
2023-11-06T04:46:45.690Z,207.93
2023-11-06T04:49:13.362Z,202.98
2023-11-06T04:51:41.008Z,200.90
2023-11-06T04:54:08.443Z,194.43
2023-11-06T04:56:35.882Z,174.43
2023-11-06T05:01:31.115Z,148.85
2023-11-06T05:06:27.213Z,134.35
2023-11-06T05:08:55.175Z,117.22
2023-11-06T05:11:22.900Z,95.30
2023-11-06T05:13:52.929Z,108.82
2023-11-06T05:16:20.262Z,89.57
2023-11-06T05:18:47.920Z,91.28
2023-11-06T05:23:52.680Z,80.57
2023-11-06T05:26:20.437Z,80.63
2023-11-06T05:31:15.067Z,81.38
2023-11-06T05:33:42.814Z,75.65
2023-11-06T05:36:13.808Z,74.07
2023-11-06T05:38:41.412Z,74.70
2023-11-06T05:41:11.565Z,75.60
2023-11-06T05:43:39.563Z,72.88
2023-11-06T05:46:07.534Z,77.97
2023-11-06T05:48:35.734Z,68.00
2023-11-06T05:51:03.747Z,60.75
2023-11-06T05:53:34.187Z,65.28
2023-11-06T05:56:01.560Z,61.67
2023-11-06T05:58:28.886Z,65.30
2023-11-06T06:00:56.402Z,55.70
2023-11-06T06:03:23.807Z,54.92
2023-11-06T06:05:51.297Z,61.47
2023-11-06T06:08:19.516Z,61.90
2023-11-06T06:10:47.078Z,51.30
2023-11-06T06:13:14.873Z,53.92
2023-11-06T06:15:42.211Z,49.65
2023-11-06T06:18:09.660Z,51.63
2023-11-06T06:20:37.063Z,54.15
2023-11-06T06:23:04.807Z,52.55
2023-11-06T06:25:32.227Z,52.70
2023-11-06T06:27:59.917Z,48.03
2023-11-06T06:30:28.078Z,46.38
2023-11-06T06:32:55.651Z,49.28
2023-11-06T06:35:23.074Z,38.50
2023-11-06T06:37:50.879Z,35.80
2023-11-06T06:40:18.376Z,35.90
2023-11-06T06:42:46.020Z,35.17
2023-11-06T06:45:13.739Z,36.03
2023-11-06T06:47:41.302Z,36.53
2023-11-06T06:50:10.364Z,39.63
2023-11-06T06:52:38.058Z,36.80
2023-11-06T06:57:33.313Z,41.40
2023-11-06T07:00:00.671Z,39.72
2023-11-06T07:02:28.290Z,36.20
2023-11-06T07:07:23.895Z,27.33
2023-11-06T07:09:54.730Z,31.45
2023-11-06T07:12:22.124Z,29.00
2023-11-06T07:14:49.436Z,29.40
2023-11-06T07:17:16.771Z,33.67
2023-11-06T07:19:45.255Z,28.00
2023-11-06T07:22:12.692Z,20.90
2023-11-06T07:24:40.060Z,26.98
2023-11-06T07:27:07.673Z,23.80
2023-11-06T07:29:35.781Z,24.20
2023-11-06T07:32:03.191Z,23.27
2023-11-06T07:34:30.551Z,32.55
2023-11-06T07:36:57.829Z,27.13
2023-11-06T07:39:25.138Z,34.40
2023-11-06T07:41:52.471Z,41.88
2023-11-06T07:44:21.605Z,30.48
2023-11-06T07:46:49.937Z,32.83
2023-11-06T07:49:17.637Z,30.95
2023-11-06T07:54:12.689Z,20.63
2023-11-06T07:56:40.168Z,24.10
2023-11-06T07:59:07.667Z,27.75
2023-11-06T08:04:04.135Z,23.55
2023-11-06T08:06:31.617Z,26.17
2023-11-06T08:08:59.077Z,31.75
2023-11-06T08:11:27.004Z,32.47
2023-11-06T08:13:54.536Z,29.27
2023-11-06T08:16:21.843Z,28.23
2023-11-06T08:18:49.198Z,27.52
2023-11-06T08:21:16.935Z,30.73
2023-11-06T08:23:45.677Z,28.85
2023-11-06T08:26:13.042Z,23.48
2023-11-06T08:28:41.885Z,25.48
2023-11-06T08:31:11.009Z,20.48
2023-11-06T08:33:38.517Z,24.27
2023-11-06T08:36:06.401Z,24.55
2023-11-06T08:38:33.793Z,22.02
2023-11-06T08:41:01.677Z,23.40
2023-11-06T08:45:57.527Z,24.88
2023-11-06T08:48:25.161Z,20.27
2023-11-06T08:53:21.544Z,18.42
2023-11-06T08:55:48.891Z,19.58
2023-11-06T08:58:18.965Z,11.52
2023-11-06T09:00:49.197Z,19.80
2023-11-06T09:03:16.918Z,22.05
2023-11-06T09:08:12.372Z,18.85
2023-11-06T09:10:40.548Z,15.43
2023-11-06T09:13:08.207Z,15.75
2023-11-06T09:15:39.558Z,13.70
2023-11-06T09:18:07.597Z,13.32
2023-11-06T09:20:35.391Z,14.80
2023-11-06T09:23:03.294Z,14.00
2023-11-06T09:25:31.281Z,13.20
2023-11-06T09:27:58.721Z,16.52
2023-11-06T09:30:26.234Z,13.63
2023-11-06T09:32:54.582Z,13.18
2023-11-06T09:35:24.345Z,13.40
2023-11-06T09:37:51.686Z,15.85
2023-11-06T09:40:24.295Z,14.95
2023-11-06T09:42:52.418Z,19.80
2023-11-06T09:45:20.173Z,15.55
2023-11-06T09:47:55.251Z,17.05
2023-11-06T09:50:25.020Z,15.50
2023-11-06T09:52:57.131Z,21.10
2023-11-06T09:55:27.212Z,16.63
2023-11-06T09:57:56.047Z,16.63
2023-11-06T10:00:24.193Z,16.30
2023-11-06T10:02:53.698Z,14.90
2023-11-06T10:05:22.093Z,14.95
2023-11-06T10:07:54.703Z,14.32
2023-11-06T10:10:24.145Z,14.52
2023-11-06T10:13:04.897Z,16.85
2023-11-06T10:15:34.139Z,14.18
2023-11-06T10:18:16.310Z,16.35
2023-11-06T10:20:52.545Z,22.63
2023-11-06T10:23:36.476Z,13.95
2023-11-06T10:26:15.668Z,14.48
2023-11-06T10:28:43.592Z,13.95
2023-11-06T10:31:11.656Z,12.85
2023-11-06T10:33:39.454Z,14.43
2023-11-06T10:36:17.124Z,12.43
2023-11-06T10:38:46.463Z,11.27
2023-11-06T10:41:26.875Z,13.40
2023-11-06T10:44:00.453Z,16.98
2023-11-06T10:46:37.544Z,27.13
2023-11-06T10:49:11.863Z,22.02
2023-11-06T10:51:41.386Z,22.90
2023-11-06T10:54:09.619Z,21.08
2023-11-06T10:56:38.416Z,21.65
2023-11-06T10:59:07.063Z,23.77
2023-11-06T11:01:36.450Z,18.88
2023-11-06T11:04:07.753Z,23.50
2023-11-06T11:06:39.335Z,24.88
2023-11-06T11:09:06.814Z,20.75
2023-11-06T11:11:35.017Z,20.42
2023-11-06T11:14:02.519Z,22.30
2023-11-06T11:16:43.651Z,20.33
2023-11-06T11:19:21.256Z,18.00
2023-11-06T11:22:14.581Z,19.80
2023-11-06T11:24:47.394Z,17.70
2023-11-06T11:27:26.037Z,19.27
2023-11-06T11:32:51.455Z,16.80
2023-11-06T11:35:39.265Z,15.32
2023-11-06T11:38:08.810Z,14.40
2023-11-06T11:40:42.466Z,14.75
2023-11-06T11:43:24.938Z,14.43
2023-11-06T11:45:52.415Z,11.90
2023-11-06T11:48:20.543Z,12.30
2023-11-06T11:50:48.129Z,16.25
2023-11-06T11:53:35.914Z,14.30
2023-11-06T12:00:23.363Z,12.57
2023-11-06T12:02:50.831Z,12.38
2023-11-06T12:05:34.062Z,15.85
2023-11-06T12:08:20.787Z,15.25
2023-11-06T12:10:50.014Z,10.65
2023-11-06T12:13:24.641Z,15.88
2023-11-06T12:15:54.597Z,14.63
2023-11-06T12:18:23.855Z,16.30
2023-11-06T12:20:59.492Z,15.52
2023-11-06T12:23:35.141Z,15.70
2023-11-06T12:26:15.095Z,12.35
2023-11-06T12:28:50.186Z,13.55
2023-11-06T12:31:21.013Z,13.75
2023-11-06T12:33:49.035Z,14.13
2023-11-06T12:38:53.378Z,14.45
2023-11-06T12:44:01.910Z,16.17
2023-11-06T12:49:19.039Z,11.93
2023-11-06T12:51:52.544Z,12.55
2023-11-06T12:54:25.991Z,10.95
2023-11-06T12:56:54.780Z,13.10
2023-11-06T13:01:49.991Z,13.18
2023-11-06T13:04:18.037Z,15.43
2023-11-06T13:06:46.200Z,10.95
2023-11-06T13:09:15.425Z,14.85
2023-11-06T13:11:44.533Z,10.95
2023-11-06T13:14:12.617Z,14.30
2023-11-06T13:16:40.003Z,11.40
2023-11-06T13:19:07.481Z,14.13
2023-11-06T13:21:36.191Z,12.40
2023-11-06T13:24:03.968Z,12.63
2023-11-06T13:28:58.622Z,17.50
2023-11-06T13:31:28.824Z,11.45
2023-11-06T13:33:56.429Z,11.68
2023-11-06T13:36:24.832Z,14.88
2023-11-06T13:38:52.816Z,13.52
2023-11-06T13:41:22.891Z,14.57
2023-11-06T13:43:52.728Z,15.40
2023-11-06T13:46:23.091Z,12.98
2023-11-06T13:48:51.744Z,14.77
2023-11-06T13:51:25.847Z,17.30
2023-11-06T13:53:54.482Z,14.60
2023-11-06T13:56:26.821Z,11.85
2023-11-06T13:58:55.695Z,15.75
2023-11-06T14:01:35.116Z,14.75
2023-11-06T14:04:06.764Z,16.33
2023-11-06T14:06:35.888Z,12.90
2023-11-06T14:09:17.115Z,13.88
2023-11-06T14:11:45.002Z,18.20
2023-11-06T14:16:40.043Z,22.20
2023-11-06T14:19:07.427Z,22.65
2023-11-06T14:21:37.021Z,26.60
2023-11-06T14:24:04.867Z,22.05
2023-11-06T14:29:00.120Z,17.83
2023-11-06T14:31:27.465Z,20.75
2023-11-06T14:33:55.192Z,19.45
2023-11-06T14:36:23.412Z,19.75
2023-11-06T14:38:50.859Z,21.55
2023-11-06T14:41:18.234Z,18.45
2023-11-06T14:43:45.750Z,18.40
2023-11-06T14:46:13.078Z,16.13
2023-11-06T14:48:47.842Z,17.77
2023-11-06T14:51:19.701Z,18.25
2023-11-06T14:53:47.146Z,19.20
2023-11-06T14:56:16.344Z,23.20
2023-11-06T14:58:44.590Z,25.48
2023-11-06T15:01:15.386Z,21.45
2023-11-06T15:03:43.356Z,22.63
2023-11-06T15:06:12.215Z,24.85
2023-11-06T15:08:39.992Z,25.13
2023-11-06T15:11:08.570Z,27.50
2023-11-06T15:13:39.066Z,23.70
2023-11-06T15:16:08.132Z,23.27
2023-11-06T15:18:35.609Z,23.77
2023-11-06T15:21:04.381Z,28.17
2023-11-06T15:23:32.320Z,23.50
2023-11-06T15:26:00.159Z,26.00
2023-11-06T15:28:29.825Z,21.48
2023-11-06T15:30:57.575Z,23.38
2023-11-06T15:33:25.175Z,23.67
2023-11-06T15:35:52.902Z,30.10
2023-11-06T15:38:20.875Z,27.05
2023-11-06T15:40:48.845Z,28.85
2023-11-06T15:43:16.248Z,30.40
2023-11-06T15:45:43.706Z,16.80
2023-11-06T15:48:12.174Z,19.13
2023-11-06T15:50:43.443Z,18.80
2023-11-06T15:53:12.836Z,16.88
2023-11-06T15:55:46.668Z,17.83
2023-11-06T15:58:15.954Z,19.77
2023-11-06T16:00:44.132Z,19.77
2023-11-06T16:03:11.999Z,17.95
2023-11-06T16:08:08.334Z,24.90
2023-11-06T16:10:37.495Z,23.88
2023-11-06T16:13:06.889Z,31.83
2023-11-06T16:15:35.140Z,21.40
2023-11-06T16:18:03.021Z,22.23
2023-11-06T16:20:30.716Z,24.77
2023-11-06T16:23:06.582Z,18.25
2023-11-06T16:25:34.367Z,20.23
2023-11-06T16:28:03.179Z,24.83
2023-11-06T16:30:30.804Z,23.67
2023-11-06T16:32:58.382Z,21.55
2023-11-06T16:35:27.561Z,24.67
2023-11-06T16:37:55.271Z,21.88
2023-11-06T16:40:22.785Z,21.13
2023-11-06T16:42:51.472Z,19.83
2023-11-06T16:45:19.310Z,21.95
2023-11-06T16:47:47.371Z,17.85
2023-11-06T16:50:20.560Z,24.15
2023-11-06T16:52:48.072Z,22.67
2023-11-06T16:55:15.422Z,22.63
2023-11-06T16:57:44.417Z,22.40
2023-11-06T17:00:14.176Z,20.33
2023-11-06T17:02:42.320Z,19.10
2023-11-06T17:05:10.503Z,18.65
2023-11-06T17:07:38.376Z,18.85
2023-11-06T17:10:06.889Z,24.85
2023-11-06T17:12:34.283Z,23.60
2023-11-06T17:15:01.656Z,21.95
2023-11-06T17:17:29.970Z,19.40
2023-11-06T17:19:58.752Z,23.10
2023-11-06T17:22:27.346Z,23.35
2023-11-06T17:24:54.782Z,17.95
2023-11-06T17:27:23.034Z,17.48
2023-11-06T17:29:51.039Z,25.13
2023-11-06T17:34:47.113Z,24.10
2023-11-06T17:37:14.806Z,22.17
2023-11-06T17:39:43.717Z,17.98
2023-11-06T17:42:15.982Z,27.33
2023-11-06T17:44:43.445Z,21.90
2023-11-06T17:47:10.855Z,22.83
2023-11-06T17:49:38.168Z,23.40
2023-11-06T17:52:06.179Z,24.02
2023-11-06T17:54:34.034Z,25.67
2023-11-06T17:59:30.165Z,19.40
2023-11-06T18:01:57.530Z,23.27
2023-11-06T18:04:25.143Z,28.20
2023-11-06T18:06:52.517Z,28.15
2023-11-06T18:09:20.093Z,23.42
2023-11-06T18:11:47.523Z,24.42
2023-11-06T18:14:14.992Z,25.77
2023-11-06T18:16:42.313Z,20.88
2023-11-06T18:19:10.593Z,18.83
2023-11-06T18:21:38.917Z,31.95
2023-11-06T18:24:06.991Z,20.80
2023-11-06T18:26:34.735Z,21.90
2023-11-06T18:31:29.906Z,22.05
2023-11-06T18:33:58.593Z,16.55
2023-11-06T18:36:26.489Z,17.63
2023-11-06T18:38:53.907Z,16.88
2023-11-06T18:41:22.388Z,21.08
2023-11-06T18:43:50.189Z,17.35
2023-11-06T18:46:17.766Z,13.80
2023-11-06T18:48:45.647Z,16.73
2023-11-06T18:51:14.999Z,16.42
2023-11-06T18:53:45.454Z,17.20
2023-11-06T18:56:13.511Z,14.95
2023-11-06T18:58:41.179Z,15.55
2023-11-06T19:01:08.837Z,15.10
2023-11-06T19:03:36.438Z,16.15
2023-11-06T19:06:15.455Z,14.32
2023-11-06T19:08:48.680Z,14.43
2023-11-06T19:11:16.359Z,12.40
2023-11-06T19:13:43.935Z,12.82
2023-11-06T19:16:11.372Z,13.43
2023-11-06T19:18:39.472Z,12.93
2023-11-06T19:21:07.529Z,11.07
2023-11-06T19:23:35.711Z,13.40
2023-11-06T19:26:04.269Z,12.80
2023-11-06T19:28:31.632Z,10.82
2023-11-06T19:30:58.947Z,11.10
2023-11-06T19:33:29.822Z,12.27
2023-11-06T19:35:57.912Z,12.27
2023-11-06T19:38:25.495Z,10.82
2023-11-06T19:40:53.093Z,9.93
2023-11-06T19:43:21.008Z,9.55
2023-11-06T19:45:50.340Z,10.20
2023-11-06T19:48:18.014Z,10.93
2023-11-06T19:50:46.126Z,10.45
2023-11-06T19:53:13.478Z,9.65
2023-11-06T19:55:40.847Z,8.65
2023-11-06T19:58:08.174Z,8.35
2023-11-06T20:00:37.476Z,9.18
2023-11-06T20:03:05.462Z,8.13
2023-11-06T20:05:33.631Z,13.35
2023-11-06T20:08:02.571Z,11.25
2023-11-06T20:10:29.906Z,14.68
2023-11-06T20:12:57.473Z,10.40
2023-11-06T20:15:24.822Z,13.13
2023-11-06T20:17:53.661Z,12.75
2023-11-06T20:20:21.813Z,12.57
2023-11-06T20:22:50.596Z,10.20
2023-11-06T20:25:17.930Z,13.73
2023-11-06T20:27:45.559Z,18.70
2023-11-06T20:30:15.350Z,13.25
2023-11-06T20:32:43.508Z,13.40
2023-11-06T20:35:11.665Z,14.05
2023-11-06T20:37:39.150Z,10.35
2023-11-06T20:40:08.205Z,8.45
2023-11-06T20:42:36.238Z,9.75
2023-11-06T20:45:04.056Z,10.23
2023-11-06T20:47:32.021Z,13.13
2023-11-06T20:50:00.349Z,13.88
2023-11-06T20:52:27.704Z,9.90
2023-11-06T20:54:55.379Z,10.32
2023-11-06T20:57:22.885Z,9.95
2023-11-06T20:59:50.246Z,12.02
2023-11-06T21:02:17.600Z,9.85
2023-11-06T21:04:44.976Z,10.65
2023-11-06T21:07:14.255Z,11.35
2023-11-06T21:09:41.739Z,9.55
2023-11-06T21:12:09.534Z,8.07
2023-11-06T21:14:37.249Z,6.38
2023-11-06T21:17:04.857Z,8.85
2023-11-06T21:19:32.423Z,9.02
2023-11-06T21:22:00.238Z,10.00
2023-11-06T21:24:27.575Z,10.07
2023-11-06T21:29:27.266Z,9.23
2023-11-06T21:31:54.864Z,9.48
2023-11-06T21:36:49.581Z,10.15
2023-11-06T21:39:17.227Z,8.43
2023-11-06T21:44:11.923Z,10.10
2023-11-06T21:49:13.264Z,7.25
2023-11-06T21:51:44.868Z,10.77
2023-11-06T21:54:12.590Z,9.27
2023-11-06T21:56:40.056Z,8.45
2023-11-06T21:59:07.564Z,9.18
2023-11-06T22:01:34.911Z,8.63
2023-11-06T22:04:02.327Z,8.13
2023-11-06T22:06:29.735Z,8.00
2023-11-06T22:08:58.017Z,8.15
2023-11-06T22:11:25.608Z,9.82
2023-11-06T22:13:52.988Z,8.30
2023-11-06T22:16:20.312Z,8.13
2023-11-06T22:18:47.748Z,9.52
2023-11-06T22:21:16.410Z,9.55
2023-11-06T22:23:43.784Z,8.13
2023-11-06T22:26:11.141Z,8.63
2023-11-06T22:28:38.458Z,10.38
2023-11-06T22:31:05.993Z,6.00
2023-11-06T22:33:34.688Z,10.55
2023-11-06T22:36:02.299Z,8.48
2023-11-06T22:38:29.696Z,7.68
2023-11-06T22:40:57.490Z,7.07
2023-11-06T22:43:24.863Z,8.55
2023-11-06T22:45:52.972Z,13.02
2023-11-06T22:48:20.551Z,7.95
2023-11-06T22:50:48.048Z,7.63
2023-11-06T22:53:20.989Z,6.88
2023-11-06T22:55:49.017Z,7.60
2023-11-06T23:00:46.316Z,8.60
2023-11-06T23:03:14.642Z,8.48
2023-11-06T23:05:43.236Z,9.95
2023-11-06T23:08:12.017Z,4.85
2023-11-06T23:10:40.059Z,8.50
2023-11-06T23:13:10.265Z,8.27
2023-11-06T23:15:38.135Z,7.85
2023-11-06T23:18:06.468Z,7.40
2023-11-06T23:20:33.960Z,6.50
